sensor_id;sensor_type;location;lat;lon;timestamp;P1;durP1;ratioP1;P2;durP2;ratioP2
4642;SDS011;2334;48.710;9.622;2023-02-21T00:00:10;6.77;;;4.20;;
4642;SDS011;2334;48.710;9.622;2023-02-21T00:02:54;5.93;;;3.23;;
4642;SDS011;2334;48.710;9.622;2023-02-21T00:05:39;5.83;;;3.57;;
4642;SDS011;2334;48.710;9.622;2023-02-21T00:08:24;6.40;;;3.50;;
4642;SDS011;2334;48.710;9.622;2023-02-21T00:11:09;5.57;;;4.00;;
4642;SDS011;2334;48.710;9.622;2023-02-21T00:13:53;6.30;;;3.90;;
4642;SDS011;2334;48.710;9.622;2023-02-21T00:16:37;10.63;;;4.47;;
4642;SDS011;2334;48.710;9.622;2023-02-21T00:19:21;5.70;;;3.40;;
4642;SDS011;2334;48.710;9.622;2023-02-21T00:22:05;6.57;;;4.17;;
4642;SDS011;2334;48.710;9.622;2023-02-21T00:24:51;7.63;;;3.80;;
4642;SDS011;2334;48.710;9.622;2023-02-21T00:27:35;7.33;;;4.10;;
4642;SDS011;2334;48.710;9.622;2023-02-21T00:30:19;3.50;;;3.20;;
4642;SDS011;2334;48.710;9.622;2023-02-21T00:33:03;3.70;;;3.03;;
4642;SDS011;2334;48.710;9.622;2023-02-21T00:35:47;4.43;;;3.87;;
4642;SDS011;2334;48.710;9.622;2023-02-21T00:38:32;3.80;;;3.27;;
4642;SDS011;2334;48.710;9.622;2023-02-21T00:41:17;7.20;;;3.53;;
4642;SDS011;2334;48.710;9.622;2023-02-21T00:44:01;8.20;;;3.70;;
4642;SDS011;2334;48.710;9.622;2023-02-21T00:46:45;5.90;;;3.10;;
4642;SDS011;2334;48.710;9.622;2023-02-21T00:49:30;5.13;;;4.53;;
4642;SDS011;2334;48.710;9.622;2023-02-21T00:52:14;7.97;;;3.50;;
4642;SDS011;2334;48.710;9.622;2023-02-21T00:54:58;10.23;;;3.80;;
4642;SDS011;2334;48.710;9.622;2023-02-21T00:57:44;5.07;;;3.40;;
4642;SDS011;2334;48.710;9.622;2023-02-21T01:00:28;3.60;;;3.30;;
4642;SDS011;2334;48.710;9.622;2023-02-21T01:03:12;9.10;;;3.63;;
4642;SDS011;2334;48.710;9.622;2023-02-21T01:05:56;5.10;;;3.37;;
4642;SDS011;2334;48.710;9.622;2023-02-21T01:08:41;5.70;;;3.93;;
4642;SDS011;2334;48.710;9.622;2023-02-21T01:11:26;8.07;;;3.13;;
4642;SDS011;2334;48.710;9.622;2023-02-21T01:14:12;6.03;;;3.73;;
4642;SDS011;2334;48.710;9.622;2023-02-21T01:16:56;4.77;;;3.00;;
4642;SDS011;2334;48.710;9.622;2023-02-21T01:19:41;7.93;;;4.40;;
4642;SDS011;2334;48.710;9.622;2023-02-21T01:22:25;2.93;;;2.77;;
4642;SDS011;2334;48.710;9.622;2023-02-21T01:25:10;4.20;;;3.10;;
4642;SDS011;2334;48.710;9.622;2023-02-21T01:27:54;7.07;;;4.30;;
4642;SDS011;2334;48.710;9.622;2023-02-21T01:30:43;8.33;;;3.33;;
4642;SDS011;2334;48.710;9.622;2023-02-21T01:33:27;4.47;;;3.47;;
4642;SDS011;2334;48.710;9.622;2023-02-21T01:36:11;4.80;;;4.17;;
4642;SDS011;2334;48.710;9.622;2023-02-21T01:38:56;3.90;;;3.10;;
4642;SDS011;2334;48.710;9.622;2023-02-21T01:41:40;7.20;;;3.47;;
4642;SDS011;2334;48.710;9.622;2023-02-21T01:44:28;8.10;;;3.70;;
4642;SDS011;2334;48.710;9.622;2023-02-21T01:47:18;4.50;;;3.70;;
4642;SDS011;2334;48.710;9.622;2023-02-21T01:50:07;3.70;;;3.37;;
4642;SDS011;2334;48.710;9.622;2023-02-21T01:52:55;7.40;;;4.03;;
4642;SDS011;2334;48.710;9.622;2023-02-21T01:55:39;6.50;;;3.30;;
4642;SDS011;2334;48.710;9.622;2023-02-21T01:58:26;5.00;;;3.23;;
4642;SDS011;2334;48.710;9.622;2023-02-21T02:01:17;4.43;;;2.90;;
4642;SDS011;2334;48.710;9.622;2023-02-21T02:04:10;8.50;;;4.07;;
4642;SDS011;2334;48.710;9.622;2023-02-21T02:06:54;8.17;;;3.53;;
4642;SDS011;2334;48.710;9.622;2023-02-21T02:09:39;3.40;;;2.93;;
4642;SDS011;2334;48.710;9.622;2023-02-21T02:12:37;3.57;;;3.27;;
4642;SDS011;2334;48.710;9.622;2023-02-21T02:15:32;3.50;;;3.20;;
4642;SDS011;2334;48.710;9.622;2023-02-21T02:18:24;4.47;;;3.43;;
4642;SDS011;2334;48.710;9.622;2023-02-21T02:24:38;5.10;;;3.63;;
4642;SDS011;2334;48.710;9.622;2023-02-21T02:27:24;12.17;;;2.90;;
4642;SDS011;2334;48.710;9.622;2023-02-21T02:30:24;3.67;;;3.17;;
4642;SDS011;2334;48.710;9.622;2023-02-21T02:36:17;4.47;;;3.03;;
4642;SDS011;2334;48.710;9.622;2023-02-21T02:38:51;5.23;;;2.80;;
4642;SDS011;2334;48.710;9.622;2023-02-21T02:41:23;4.13;;;3.30;;
4642;SDS011;2334;48.710;9.622;2023-02-21T02:44:01;3.97;;;2.83;;
4642;SDS011;2334;48.710;9.622;2023-02-21T02:46:32;5.10;;;3.23;;
4642;SDS011;2334;48.710;9.622;2023-02-21T02:49:04;2.57;;;2.37;;
4642;SDS011;2334;48.710;9.622;2023-02-21T02:51:35;3.00;;;2.20;;
4642;SDS011;2334;48.710;9.622;2023-02-21T02:54:02;9.33;;;2.93;;
4642;SDS011;2334;48.710;9.622;2023-02-21T02:56:29;4.47;;;2.93;;
4642;SDS011;2334;48.710;9.622;2023-02-21T02:58:58;6.50;;;2.83;;
4642;SDS011;2334;48.710;9.622;2023-02-21T03:01:33;5.57;;;3.10;;
4642;SDS011;2334;48.710;9.622;2023-02-21T03:04:15;4.03;;;2.60;;
4642;SDS011;2334;48.710;9.622;2023-02-21T03:07:04;4.23;;;2.57;;
4642;SDS011;2334;48.710;9.622;2023-02-21T03:09:37;6.23;;;3.23;;
4642;SDS011;2334;48.710;9.622;2023-02-21T03:12:15;3.13;;;2.53;;
4642;SDS011;2334;48.710;9.622;2023-02-21T03:14:49;5.07;;;3.00;;
4642;SDS011;2334;48.710;9.622;2023-02-21T03:17:22;2.67;;;2.20;;
4642;SDS011;2334;48.710;9.622;2023-02-21T03:19:51;3.50;;;2.67;;
4642;SDS011;2334;48.710;9.622;2023-02-21T03:22:24;3.07;;;2.77;;
4642;SDS011;2334;48.710;9.622;2023-02-21T03:24:54;5.43;;;3.40;;
4642;SDS011;2334;48.710;9.622;2023-02-21T03:27:23;6.37;;;3.10;;
4642;SDS011;2334;48.710;9.622;2023-02-21T03:29:51;4.10;;;2.57;;
4642;SDS011;2334;48.710;9.622;2023-02-21T03:32:23;7.80;;;2.50;;
4642;SDS011;2334;48.710;9.622;2023-02-21T03:34:51;4.87;;;2.67;;
4642;SDS011;2334;48.710;9.622;2023-02-21T03:37:19;3.50;;;2.60;;
4642;SDS011;2334;48.710;9.622;2023-02-21T03:39:55;4.70;;;2.90;;
4642;SDS011;2334;48.710;9.622;2023-02-21T03:42:22;5.27;;;3.03;;
4642;SDS011;2334;48.710;9.622;2023-02-21T03:44:48;3.47;;;3.10;;
4642;SDS011;2334;48.710;9.622;2023-02-21T03:47:15;6.80;;;3.10;;
4642;SDS011;2334;48.710;9.622;2023-02-21T03:49:42;4.73;;;2.73;;
4642;SDS011;2334;48.710;9.622;2023-02-21T03:52:09;6.53;;;3.77;;
4642;SDS011;2334;48.710;9.622;2023-02-21T03:54:37;3.20;;;2.73;;
4642;SDS011;2334;48.710;9.622;2023-02-21T03:57:05;10.20;;;2.40;;
4642;SDS011;2334;48.710;9.622;2023-02-21T03:59:32;3.43;;;2.40;;
4642;SDS011;2334;48.710;9.622;2023-02-21T04:01:59;5.50;;;3.00;;
4642;SDS011;2334;48.710;9.622;2023-02-21T04:04:26;4.67;;;3.03;;
4642;SDS011;2334;48.710;9.622;2023-02-21T04:06:53;4.13;;;2.93;;
4642;SDS011;2334;48.710;9.622;2023-02-21T04:09:20;6.20;;;2.50;;
4642;SDS011;2334;48.710;9.622;2023-02-21T04:11:47;7.23;;;2.33;;
4642;SDS011;2334;48.710;9.622;2023-02-21T04:14:15;6.17;;;3.53;;
4642;SDS011;2334;48.710;9.622;2023-02-21T04:16:42;4.13;;;2.67;;
4642;SDS011;2334;48.710;9.622;2023-02-21T04:19:09;9.80;;;2.77;;
4642;SDS011;2334;48.710;9.622;2023-02-21T04:21:36;3.83;;;3.50;;
4642;SDS011;2334;48.710;9.622;2023-02-21T04:24:03;4.73;;;2.83;;
4642;SDS011;2334;48.710;9.622;2023-02-21T04:26:30;9.80;;;3.57;;
4642;SDS011;2334;48.710;9.622;2023-02-21T04:28:59;2.67;;;2.43;;
4642;SDS011;2334;48.710;9.622;2023-02-21T04:31:27;5.73;;;2.53;;
4642;SDS011;2334;48.710;9.622;2023-02-21T04:33:54;7.13;;;2.47;;
4642;SDS011;2334;48.710;9.622;2023-02-21T04:36:21;2.70;;;2.50;;
4642;SDS011;2334;48.710;9.622;2023-02-21T04:38:48;5.43;;;3.57;;
4642;SDS011;2334;48.710;9.622;2023-02-21T04:41:15;4.10;;;2.50;;
4642;SDS011;2334;48.710;9.622;2023-02-21T04:43:42;3.40;;;3.10;;
4642;SDS011;2334;48.710;9.622;2023-02-21T04:46:10;2.90;;;2.63;;
4642;SDS011;2334;48.710;9.622;2023-02-21T04:48:41;3.03;;;2.43;;
4642;SDS011;2334;48.710;9.622;2023-02-21T04:51:08;3.30;;;3.00;;
4642;SDS011;2334;48.710;9.622;2023-02-21T04:53:35;7.50;;;2.87;;
4642;SDS011;2334;48.710;9.622;2023-02-21T04:56:03;2.80;;;2.60;;
4642;SDS011;2334;48.710;9.622;2023-02-21T04:58:30;2.97;;;2.67;;
4642;SDS011;2334;48.710;9.622;2023-02-21T05:00:57;3.67;;;2.33;;
4642;SDS011;2334;48.710;9.622;2023-02-21T05:03:24;3.60;;;3.30;;
4642;SDS011;2334;48.710;9.622;2023-02-21T05:05:52;4.20;;;2.93;;
4642;SDS011;2334;48.710;9.622;2023-02-21T05:08:18;3.47;;;3.13;;
4642;SDS011;2334;48.710;9.622;2023-02-21T05:10:45;4.43;;;2.80;;
4642;SDS011;2334;48.710;9.622;2023-02-21T05:13:12;4.10;;;3.50;;
4642;SDS011;2334;48.710;9.622;2023-02-21T05:15:39;3.70;;;2.80;;
4642;SDS011;2334;48.710;9.622;2023-02-21T05:18:06;3.20;;;2.93;;
4642;SDS011;2334;48.710;9.622;2023-02-21T05:20:34;3.70;;;2.90;;
4642;SDS011;2334;48.710;9.622;2023-02-21T05:23:02;6.07;;;3.50;;
4642;SDS011;2334;48.710;9.622;2023-02-21T05:25:29;8.20;;;3.10;;
4642;SDS011;2334;48.710;9.622;2023-02-21T05:27:56;4.13;;;2.90;;
4642;SDS011;2334;48.710;9.622;2023-02-21T05:30:24;2.90;;;2.60;;
4642;SDS011;2334;48.710;9.622;2023-02-21T05:32:51;7.97;;;3.47;;
4642;SDS011;2334;48.710;9.622;2023-02-21T05:35:18;3.10;;;2.70;;
4642;SDS011;2334;48.710;9.622;2023-02-21T05:37:45;4.87;;;3.07;;
4642;SDS011;2334;48.710;9.622;2023-02-21T05:40:14;3.43;;;3.13;;
4642;SDS011;2334;48.710;9.622;2023-02-21T05:42:42;3.50;;;3.20;;
4642;SDS011;2334;48.710;9.622;2023-02-21T05:45:09;5.23;;;3.70;;
4642;SDS011;2334;48.710;9.622;2023-02-21T05:47:36;4.90;;;2.80;;
4642;SDS011;2334;48.710;9.622;2023-02-21T05:50:04;3.10;;;2.80;;
4642;SDS011;2334;48.710;9.622;2023-02-21T05:52:31;3.40;;;2.87;;
4642;SDS011;2334;48.710;9.622;2023-02-21T05:54:58;3.50;;;2.73;;
4642;SDS011;2334;48.710;9.622;2023-02-21T05:57:26;2.70;;;2.40;;
4642;SDS011;2334;48.710;9.622;2023-02-21T05:59:53;4.30;;;2.80;;
4642;SDS011;2334;48.710;9.622;2023-02-21T06:02:20;2.93;;;2.40;;
4642;SDS011;2334;48.710;9.622;2023-02-21T06:04:47;4.13;;;3.43;;
4642;SDS011;2334;48.710;9.622;2023-02-21T06:07:14;5.37;;;3.00;;
4642;SDS011;2334;48.710;9.622;2023-02-21T06:09:42;2.20;;;2.10;;
4642;SDS011;2334;48.710;9.622;2023-02-21T06:12:09;2.60;;;2.30;;
4642;SDS011;2334;48.710;9.622;2023-02-21T06:14:37;3.17;;;2.40;;
4642;SDS011;2334;48.710;9.622;2023-02-21T06:17:04;2.83;;;2.63;;
4642;SDS011;2334;48.710;9.622;2023-02-21T06:19:31;3.73;;;2.90;;
4642;SDS011;2334;48.710;9.622;2023-02-21T06:21:58;6.53;;;3.60;;
4642;SDS011;2334;48.710;9.622;2023-02-21T06:24:25;7.30;;;2.83;;
4642;SDS011;2334;48.710;9.622;2023-02-21T06:26:52;5.30;;;2.73;;
4642;SDS011;2334;48.710;9.622;2023-02-21T06:29:19;3.20;;;2.90;;
4642;SDS011;2334;48.710;9.622;2023-02-21T06:31:47;3.03;;;2.83;;
4642;SDS011;2334;48.710;9.622;2023-02-21T06:34:14;9.33;;;3.67;;
4642;SDS011;2334;48.710;9.622;2023-02-21T06:36:40;4.27;;;3.67;;
4642;SDS011;2334;48.710;9.622;2023-02-21T06:39:08;8.50;;;4.37;;
4642;SDS011;2334;48.710;9.622;2023-02-21T06:41:37;10.10;;;3.97;;
4642;SDS011;2334;48.710;9.622;2023-02-21T06:44:04;5.67;;;3.80;;
4642;SDS011;2334;48.710;9.622;2023-02-21T06:46:31;4.40;;;4.00;;
4642;SDS011;2334;48.710;9.622;2023-02-21T06:49:01;7.23;;;4.57;;
4642;SDS011;2334;48.710;9.622;2023-02-21T06:51:32;8.67;;;6.20;;
4642;SDS011;2334;48.710;9.622;2023-02-21T06:53:59;8.13;;;5.37;;
4642;SDS011;2334;48.710;9.622;2023-02-21T06:56:26;6.20;;;4.60;;
4642;SDS011;2334;48.710;9.622;2023-02-21T06:58:53;6.57;;;4.67;;
4642;SDS011;2334;48.710;9.622;2023-02-21T07:01:20;3.80;;;3.20;;
4642;SDS011;2334;48.710;9.622;2023-02-21T07:03:48;4.97;;;4.13;;
4642;SDS011;2334;48.710;9.622;2023-02-21T07:06:16;4.00;;;3.30;;
4642;SDS011;2334;48.710;9.622;2023-02-21T07:08:43;8.23;;;5.07;;
4642;SDS011;2334;48.710;9.622;2023-02-21T07:11:10;11.70;;;5.37;;
4642;SDS011;2334;48.710;9.622;2023-02-21T07:13:37;8.00;;;5.47;;
4642;SDS011;2334;48.710;9.622;2023-02-21T07:16:04;9.60;;;5.03;;
4642;SDS011;2334;48.710;9.622;2023-02-21T07:18:32;5.43;;;4.70;;
4642;SDS011;2334;48.710;9.622;2023-02-21T07:20:59;9.00;;;4.90;;
4642;SDS011;2334;48.710;9.622;2023-02-21T07:23:27;8.37;;;5.27;;
4642;SDS011;2334;48.710;9.622;2023-02-21T07:25:54;8.53;;;4.30;;
4642;SDS011;2334;48.710;9.622;2023-02-21T07:28:21;4.83;;;3.87;;
4642;SDS011;2334;48.710;9.622;2023-02-21T07:30:48;7.10;;;4.20;;
4642;SDS011;2334;48.710;9.622;2023-02-21T07:33:15;5.20;;;3.80;;
4642;SDS011;2334;48.710;9.622;2023-02-21T07:35:42;4.37;;;3.63;;
4642;SDS011;2334;48.710;9.622;2023-02-21T07:38:11;4.27;;;3.83;;
4642;SDS011;2334;48.710;9.622;2023-02-21T07:40:46;6.67;;;4.00;;
4642;SDS011;2334;48.710;9.622;2023-02-21T07:43:13;6.03;;;3.90;;
4642;SDS011;2334;48.710;9.622;2023-02-21T07:45:40;4.80;;;3.83;;
4642;SDS011;2334;48.710;9.622;2023-02-21T07:48:07;8.33;;;2.97;;
4642;SDS011;2334;48.710;9.622;2023-02-21T07:50:34;7.13;;;3.20;;
4642;SDS011;2334;48.710;9.622;2023-02-21T07:53:01;4.10;;;3.37;;
4642;SDS011;2334;48.710;9.622;2023-02-21T07:55:28;4.60;;;3.37;;
4642;SDS011;2334;48.710;9.622;2023-02-21T07:57:56;4.90;;;3.03;;
4642;SDS011;2334;48.710;9.622;2023-02-21T08:00:23;11.60;;;3.67;;
4642;SDS011;2334;48.710;9.622;2023-02-21T08:02:50;3.00;;;2.67;;
4642;SDS011;2334;48.710;9.622;2023-02-21T08:05:17;5.67;;;3.47;;
4642;SDS011;2334;48.710;9.622;2023-02-21T08:07:45;6.57;;;4.30;;
4642;SDS011;2334;48.710;9.622;2023-02-21T08:10:13;8.90;;;5.27;;
4642;SDS011;2334;48.710;9.622;2023-02-21T08:12:45;10.80;;;4.17;;
4642;SDS011;2334;48.710;9.622;2023-02-21T08:15:21;10.33;;;3.80;;
4642;SDS011;2334;48.710;9.622;2023-02-21T08:17:48;10.40;;;4.97;;
4642;SDS011;2334;48.710;9.622;2023-02-21T08:20:15;6.70;;;4.90;;
4642;SDS011;2334;48.710;9.622;2023-02-21T08:22:42;9.30;;;4.47;;
4642;SDS011;2334;48.710;9.622;2023-02-21T08:25:10;6.43;;;4.17;;
4642;SDS011;2334;48.710;9.622;2023-02-21T08:27:37;7.50;;;5.00;;
4642;SDS011;2334;48.710;9.622;2023-02-21T08:30:05;9.10;;;5.53;;
4642;SDS011;2334;48.710;9.622;2023-02-21T08:32:34;7.10;;;4.90;;
4642;SDS011;2334;48.710;9.622;2023-02-21T08:35:02;9.60;;;5.80;;
4642;SDS011;2334;48.710;9.622;2023-02-21T08:37:30;8.90;;;4.07;;
4642;SDS011;2334;48.710;9.622;2023-02-21T08:40:00;8.97;;;4.67;;
4642;SDS011;2334;48.710;9.622;2023-02-21T08:42:28;5.87;;;3.80;;
4642;SDS011;2334;48.710;9.622;2023-02-21T08:44:55;5.97;;;4.70;;
4642;SDS011;2334;48.710;9.622;2023-02-21T08:47:21;8.10;;;5.27;;
4642;SDS011;2334;48.710;9.622;2023-02-21T08:49:50;8.13;;;4.80;;
4642;SDS011;2334;48.710;9.622;2023-02-21T08:52:17;11.50;;;4.90;;
4642;SDS011;2334;48.710;9.622;2023-02-21T08:54:46;5.63;;;4.53;;
4642;SDS011;2334;48.710;9.622;2023-02-21T08:57:13;5.70;;;3.80;;
4642;SDS011;2334;48.710;9.622;2023-02-21T08:59:40;7.13;;;3.90;;
4642;SDS011;2334;48.710;9.622;2023-02-21T09:02:13;3.63;;;2.97;;
4642;SDS011;2334;48.710;9.622;2023-02-21T09:04:41;7.27;;;3.90;;
4642;SDS011;2334;48.710;9.622;2023-02-21T09:07:09;6.10;;;3.80;;
4642;SDS011;2334;48.710;9.622;2023-02-21T09:09:37;4.13;;;3.37;;
4642;SDS011;2334;48.710;9.622;2023-02-21T09:12:05;6.10;;;3.20;;
4642;SDS011;2334;48.710;9.622;2023-02-21T09:14:33;7.17;;;3.63;;
4642;SDS011;2334;48.710;9.622;2023-02-21T09:17:00;6.63;;;3.80;;
4642;SDS011;2334;48.710;9.622;2023-02-21T09:19:27;8.20;;;3.80;;
4642;SDS011;2334;48.710;9.622;2023-02-21T09:21:54;6.50;;;3.67;;
4642;SDS011;2334;48.710;9.622;2023-02-21T09:24:23;6.47;;;3.50;;
4642;SDS011;2334;48.710;9.622;2023-02-21T09:26:51;9.50;;;3.73;;
4642;SDS011;2334;48.710;9.622;2023-02-21T09:29:19;4.70;;;3.87;;
4642;SDS011;2334;48.710;9.622;2023-02-21T09:31:46;8.43;;;4.10;;
4642;SDS011;2334;48.710;9.622;2023-02-21T09:34:14;5.23;;;3.83;;
4642;SDS011;2334;48.710;9.622;2023-02-21T09:36:41;9.10;;;4.50;;
4642;SDS011;2334;48.710;9.622;2023-02-21T09:39:08;8.40;;;4.60;;
4642;SDS011;2334;48.710;9.622;2023-02-21T09:41:38;9.30;;;4.50;;
4642;SDS011;2334;48.710;9.622;2023-02-21T09:44:09;7.33;;;3.80;;
4642;SDS011;2334;48.710;9.622;2023-02-21T09:46:39;5.50;;;3.37;;
4642;SDS011;2334;48.710;9.622;2023-02-21T09:49:10;9.63;;;4.00;;
4642;SDS011;2334;48.710;9.622;2023-02-21T09:51:42;10.10;;;3.43;;
4642;SDS011;2334;48.710;9.622;2023-02-21T09:54:12;7.27;;;3.93;;
4642;SDS011;2334;48.710;9.622;2023-02-21T09:56:46;7.10;;;3.57;;
4642;SDS011;2334;48.710;9.622;2023-02-21T09:59:13;6.50;;;3.70;;
4642;SDS011;2334;48.710;9.622;2023-02-21T10:01:46;4.10;;;2.60;;
4642;SDS011;2334;48.710;9.622;2023-02-21T10:04:23;3.30;;;2.43;;
4642;SDS011;2334;48.710;9.622;2023-02-21T10:06:58;6.00;;;2.70;;
4642;SDS011;2334;48.710;9.622;2023-02-21T10:09:30;6.03;;;2.80;;
4642;SDS011;2334;48.710;9.622;2023-02-21T10:12:09;4.57;;;2.67;;
4642;SDS011;2334;48.710;9.622;2023-02-21T10:14:49;4.37;;;2.73;;
4642;SDS011;2334;48.710;9.622;2023-02-21T10:17:29;6.53;;;2.63;;
4642;SDS011;2334;48.710;9.622;2023-02-21T10:20:01;5.63;;;3.07;;
4642;SDS011;2334;48.710;9.622;2023-02-21T10:22:34;9.50;;;3.33;;
4642;SDS011;2334;48.710;9.622;2023-02-21T10:25:08;7.73;;;2.90;;
4642;SDS011;2334;48.710;9.622;2023-02-21T10:27:47;4.90;;;3.63;;
4642;SDS011;2334;48.710;9.622;2023-02-21T10:30:16;5.17;;;3.10;;
4642;SDS011;2334;48.710;9.622;2023-02-21T10:32:50;3.60;;;2.43;;
4642;SDS011;2334;48.710;9.622;2023-02-21T10:35:18;4.10;;;3.17;;
4642;SDS011;2334;48.710;9.622;2023-02-21T10:37:45;9.50;;;2.73;;
4642;SDS011;2334;48.710;9.622;2023-02-21T10:40:19;3.60;;;3.00;;
4642;SDS011;2334;48.710;9.622;2023-02-21T10:42:56;5.37;;;3.60;;
4642;SDS011;2334;48.710;9.622;2023-02-21T10:45:29;7.30;;;3.60;;
4642;SDS011;2334;48.710;9.622;2023-02-21T10:48:01;3.70;;;2.77;;
4642;SDS011;2334;48.710;9.622;2023-02-21T10:50:37;3.80;;;3.33;;
4642;SDS011;2334;48.710;9.622;2023-02-21T10:53:09;5.97;;;4.03;;
4642;SDS011;2334;48.710;9.622;2023-02-21T10:58:43;5.20;;;3.60;;
4642;SDS011;2334;48.710;9.622;2023-02-21T11:01:11;5.40;;;3.67;;
4642;SDS011;2334;48.710;9.622;2023-02-21T11:03:43;3.63;;;2.77;;
4642;SDS011;2334;48.710;9.622;2023-02-21T11:06:20;6.40;;;2.90;;
4642;SDS011;2334;48.710;9.622;2023-02-21T11:08:52;4.93;;;3.30;;
4642;SDS011;2334;48.710;9.622;2023-02-21T11:11:33;4.23;;;2.70;;
4642;SDS011;2334;48.710;9.622;2023-02-21T11:14:19;3.23;;;2.80;;
4642;SDS011;2334;48.710;9.622;2023-02-21T11:17:10;5.00;;;3.37;;
4642;SDS011;2334;48.710;9.622;2023-02-21T11:19:44;4.20;;;3.03;;
4642;SDS011;2334;48.710;9.622;2023-02-21T11:22:13;3.80;;;3.33;;
4642;SDS011;2334;48.710;9.622;2023-02-21T11:24:45;3.27;;;2.80;;
4642;SDS011;2334;48.710;9.622;2023-02-21T11:27:23;5.70;;;3.73;;
4642;SDS011;2334;48.710;9.622;2023-02-21T11:29:53;8.20;;;3.20;;
4642;SDS011;2334;48.710;9.622;2023-02-21T11:32:25;6.67;;;2.93;;
4642;SDS011;2334;48.710;9.622;2023-02-21T11:35:05;4.73;;;2.93;;
4642;SDS011;2334;48.710;9.622;2023-02-21T11:37:48;4.63;;;2.50;;
4642;SDS011;2334;48.710;9.622;2023-02-21T11:40:21;2.37;;;1.83;;
4642;SDS011;2334;48.710;9.622;2023-02-21T11:42:50;3.87;;;2.27;;
4642;SDS011;2334;48.710;9.622;2023-02-21T11:45:20;5.20;;;2.30;;
4642;SDS011;2334;48.710;9.622;2023-02-21T11:47:55;3.23;;;1.40;;
4642;SDS011;2334;48.710;9.622;2023-02-21T11:50:26;1.77;;;1.67;;
4642;SDS011;2334;48.710;9.622;2023-02-21T11:53:00;1.57;;;1.47;;
4642;SDS011;2334;48.710;9.622;2023-02-21T11:55:31;16.27;;;1.53;;
4642;SDS011;2334;48.710;9.622;2023-02-21T11:58:05;5.57;;;1.37;;
4642;SDS011;2334;48.710;9.622;2023-02-21T12:00:45;1.93;;;1.10;;
4642;SDS011;2334;48.710;9.622;2023-02-21T12:03:45;1.77;;;1.30;;
4642;SDS011;2334;48.710;9.622;2023-02-21T12:06:27;1.20;;;1.10;;
4642;SDS011;2334;48.710;9.622;2023-02-21T12:09:03;0.80;;;0.80;;
4642;SDS011;2334;48.710;9.622;2023-02-21T12:11:44;1.10;;;1.00;;
4642;SDS011;2334;48.710;9.622;2023-02-21T12:14:23;5.70;;;1.40;;
4642;SDS011;2334;48.710;9.622;2023-02-21T12:17:08;2.47;;;1.33;;
4642;SDS011;2334;48.710;9.622;2023-02-21T12:19:46;1.63;;;1.40;;
4642;SDS011;2334;48.710;9.622;2023-02-21T12:22:34;1.07;;;0.90;;
4642;SDS011;2334;48.710;9.622;2023-02-21T12:25:15;1.10;;;1.00;;
4642;SDS011;2334;48.710;9.622;2023-02-21T12:27:49;4.93;;;1.20;;
4642;SDS011;2334;48.710;9.622;2023-02-21T12:30:24;3.60;;;1.20;;
4642;SDS011;2334;48.710;9.622;2023-02-21T12:33:05;4.50;;;0.90;;
4642;SDS011;2334;48.710;9.622;2023-02-21T12:35:48;1.10;;;1.00;;
4642;SDS011;2334;48.710;9.622;2023-02-21T12:38:51;2.10;;;0.90;;
4642;SDS011;2334;48.710;9.622;2023-02-21T12:41:30;4.57;;;1.00;;
4642;SDS011;2334;48.710;9.622;2023-02-21T12:44:10;1.63;;;1.30;;
4642;SDS011;2334;48.710;9.622;2023-02-21T12:46:39;2.40;;;1.10;;
4642;SDS011;2334;48.710;9.622;2023-02-21T12:49:15;1.07;;;1.07;;
4642;SDS011;2334;48.710;9.622;2023-02-21T12:51:48;1.00;;;0.90;;
4642;SDS011;2334;48.710;9.622;2023-02-21T12:54:20;6.97;;;1.30;;
4642;SDS011;2334;48.710;9.622;2023-02-21T12:56:51;1.47;;;1.20;;
4642;SDS011;2334;48.710;9.622;2023-02-21T12:59:22;1.57;;;1.20;;
4642;SDS011;2334;48.710;9.622;2023-02-21T13:01:54;2.47;;;1.30;;
4642;SDS011;2334;48.710;9.622;2023-02-21T13:04:31;2.40;;;1.20;;
4642;SDS011;2334;48.710;9.622;2023-02-21T13:07:04;1.30;;;1.20;;
4642;SDS011;2334;48.710;9.622;2023-02-21T13:09:50;1.00;;;1.00;;
4642;SDS011;2334;48.710;9.622;2023-02-21T13:12:24;2.60;;;1.10;;
4642;SDS011;2334;48.710;9.622;2023-02-21T13:14:58;1.43;;;1.03;;
4642;SDS011;2334;48.710;9.622;2023-02-21T13:17:27;0.80;;;0.80;;
4642;SDS011;2334;48.710;9.622;2023-02-21T13:19:58;0.90;;;0.90;;
4642;SDS011;2334;48.710;9.622;2023-02-21T13:25:56;7.73;;;1.23;;
4642;SDS011;2334;48.710;9.622;2023-02-21T13:28:35;1.00;;;0.90;;
4642;SDS011;2334;48.710;9.622;2023-02-21T13:31:04;1.10;;;1.00;;
4642;SDS011;2334;48.710;9.622;2023-02-21T13:33:35;1.43;;;1.33;;
4642;SDS011;2334;48.710;9.622;2023-02-21T13:36:19;2.57;;;1.20;;
4642;SDS011;2334;48.710;9.622;2023-02-21T13:38:55;2.07;;;1.07;;
4642;SDS011;2334;48.710;9.622;2023-02-21T13:41:30;0.90;;;0.90;;
4642;SDS011;2334;48.710;9.622;2023-02-21T13:44:03;1.43;;;1.17;;
4642;SDS011;2334;48.710;9.622;2023-02-21T13:49:44;1.80;;;1.20;;
4642;SDS011;2334;48.710;9.622;2023-02-21T14:01:12;1.20;;;1.10;;
4642;SDS011;2334;48.710;9.622;2023-02-21T14:03:41;1.60;;;1.10;;
4642;SDS011;2334;48.710;9.622;2023-02-21T14:06:23;4.00;;;1.30;;
4642;SDS011;2334;48.710;9.622;2023-02-21T14:08:58;3.80;;;2.00;;
4642;SDS011;2334;48.710;9.622;2023-02-21T14:11:28;3.63;;;1.77;;
4642;SDS011;2334;48.710;9.622;2023-02-21T14:14:01;1.77;;;1.20;;
4642;SDS011;2334;48.710;9.622;2023-02-21T14:16:31;2.77;;;1.30;;
4642;SDS011;2334;48.710;9.622;2023-02-21T14:19:00;1.80;;;1.13;;
4642;SDS011;2334;48.710;9.622;2023-02-21T14:21:32;0.90;;;0.90;;
4642;SDS011;2334;48.710;9.622;2023-02-21T14:24:14;2.50;;;1.00;;
4642;SDS011;2334;48.710;9.622;2023-02-21T14:26:43;2.03;;;1.00;;
4642;SDS011;2334;48.710;9.622;2023-02-21T14:29:13;1.53;;;1.23;;
4642;SDS011;2334;48.710;9.622;2023-02-21T14:31:53;1.20;;;1.10;;
4642;SDS011;2334;48.710;9.622;2023-02-21T14:34:24;1.53;;;1.10;;
4642;SDS011;2334;48.710;9.622;2023-02-21T14:36:56;0.93;;;0.93;;
4642;SDS011;2334;48.710;9.622;2023-02-21T14:39:31;2.23;;;1.17;;
4642;SDS011;2334;48.710;9.622;2023-02-21T14:48:00;1.17;;;1.10;;
4642;SDS011;2334;48.710;9.622;2023-02-21T14:54:09;1.87;;;1.30;;
4642;SDS011;2334;48.710;9.622;2023-02-21T14:57:13;1.60;;;1.10;;
4642;SDS011;2334;48.710;9.622;2023-02-21T14:59:59;9.17;;;1.20;;
4642;SDS011;2334;48.710;9.622;2023-02-21T15:02:38;3.40;;;1.10;;
4642;SDS011;2334;48.710;9.622;2023-02-21T15:05:10;3.67;;;1.10;;
4642;SDS011;2334;48.710;9.622;2023-02-21T15:07:44;3.03;;;1.10;;
4642;SDS011;2334;48.710;9.622;2023-02-21T15:10:22;2.00;;;0.90;;
4642;SDS011;2334;48.710;9.622;2023-02-21T15:12:52;1.30;;;1.17;;
4642;SDS011;2334;48.710;9.622;2023-02-21T15:15:22;3.00;;;1.27;;
4642;SDS011;2334;48.710;9.622;2023-02-21T15:17:55;4.37;;;1.53;;
4642;SDS011;2334;48.710;9.622;2023-02-21T15:20:26;1.40;;;1.30;;
4642;SDS011;2334;48.710;9.622;2023-02-21T15:22:55;1.60;;;0.93;;
4642;SDS011;2334;48.710;9.622;2023-02-21T15:25:24;1.00;;;0.90;;
4642;SDS011;2334;48.710;9.622;2023-02-21T15:27:54;1.30;;;0.97;;
4642;SDS011;2334;48.710;9.622;2023-02-21T15:30:36;1.50;;;1.00;;
4642;SDS011;2334;48.710;9.622;2023-02-21T15:33:05;0.60;;;0.60;;
4642;SDS011;2334;48.710;9.622;2023-02-21T15:35:39;0.77;;;0.70;;
4642;SDS011;2334;48.710;9.622;2023-02-21T15:38:10;1.60;;;1.40;;
4642;SDS011;2334;48.710;9.622;2023-02-21T15:40:42;2.50;;;0.90;;
4642;SDS011;2334;48.710;9.622;2023-02-21T15:43:13;1.60;;;0.93;;
4642;SDS011;2334;48.710;9.622;2023-02-21T15:45:49;2.70;;;0.93;;
4642;SDS011;2334;48.710;9.622;2023-02-21T15:48:18;0.87;;;0.87;;
4642;SDS011;2334;48.710;9.622;2023-02-21T15:50:45;0.97;;;0.97;;
4642;SDS011;2334;48.710;9.622;2023-02-21T15:53:14;2.33;;;0.97;;
4642;SDS011;2334;48.710;9.622;2023-02-21T15:55:44;0.93;;;0.90;;
4642;SDS011;2334;48.710;9.622;2023-02-21T15:58:15;0.73;;;0.73;;
4642;SDS011;2334;48.710;9.622;2023-02-21T16:00:45;0.80;;;0.70;;
4642;SDS011;2334;48.710;9.622;2023-02-21T16:03:33;1.00;;;0.90;;
4642;SDS011;2334;48.710;9.622;2023-02-21T16:06:11;0.60;;;0.60;;
4642;SDS011;2334;48.710;9.622;2023-02-21T16:08:51;1.63;;;0.73;;
4642;SDS011;2334;48.710;9.622;2023-02-21T16:11:23;1.37;;;0.70;;
4642;SDS011;2334;48.710;9.622;2023-02-21T16:13:54;2.10;;;1.07;;
4642;SDS011;2334;48.710;9.622;2023-02-21T16:16:21;2.00;;;0.87;;
4642;SDS011;2334;48.710;9.622;2023-02-21T16:18:53;0.73;;;0.63;;
4642;SDS011;2334;48.710;9.622;2023-02-21T16:21:22;1.53;;;0.60;;
4642;SDS011;2334;48.710;9.622;2023-02-21T16:23:51;1.70;;;0.63;;
4642;SDS011;2334;48.710;9.622;2023-02-21T16:26:19;1.23;;;0.90;;